Time;durP1;ratioP1;P1;durP2;ratioP2;P2;SDS_P1;SDS_P2;PMS_P1;PMS_P2;Temp;Humidity;BMP_temperature;BMP_pressure;BME280_temperature;BME280_humidity;BME280_pressure;Samples;Min_cycle;Max_cycle;Signal;HPM_P1;HPM_P2
2022/02/14 00:00:58;;;;;;;7.38;1.75;;;;;;;11.71;73.19;98219.72;4956390;28;20038;-90
2022/02/14 00:03:24;;;;;;;9.73;2.30;;;;;;;11.73;73.24;98230.91;4957776;28;20019;-91
2022/02/14 00:05:50;;;;;;;8.75;2.63;;;;;;;11.74;73.46;98232.53;4957682;28;20023;-90
2022/02/14 00:08:15;;;;;;;5.68;2.22;;;;;;;11.74;73.62;98226.44;4957531;28;20498;-90
2022/02/14 00:10:41;;;;;;;10.82;3.38;;;;;;;11.73;73.30;98227.41;4957300;28;20034;-90
2022/02/14 00:13:06;;;;;;;14.57;2.67;;;;;;;11.81;73.07;98241.41;4958002;28;20027;-90
2022/02/14 00:15:32;;;;;;;13.60;2.28;;;;;;;11.73;73.54;98238.78;4957056;28;20371;-90
2022/02/14 00:17:58;;;;;;;3.38;2.00;;;;;;;11.48;73.11;98244.00;4957324;28;20030;-90
2022/02/14 00:20:23;;;;;;;7.15;1.75;;;;;;;11.40;73.03;98236.13;4957975;28;20047;-90
2022/02/14 00:22:50;;;;;;;6.55;1.50;;;;;;;11.60;73.30;98235.81;4956694;28;20035;-90
2022/02/14 00:25:19;;;;;;;10.45;1.60;;;;;;;11.60;72.94;98243.69;4956736;28;20550;-90
2022/02/14 00:27:46;;;;;;;12.02;1.80;;;;;;;11.64;72.50;98251.09;4958086;28;20055;-90
2022/02/14 00:30:12;;;;;;;5.88;1.40;;;;;;;11.47;72.97;98247.63;4957186;28;20115;-91
2022/02/14 00:32:38;;;;;;;6.43;1.67;;;;;;;11.57;72.82;98251.91;4957198;28;20527;-90
2022/02/14 00:35:04;;;;;;;6.07;1.52;;;;;;;11.44;72.56;98244.50;4956674;28;20492;-90
2022/02/14 00:37:29;;;;;;;6.22;1.50;;;;;;;11.29;72.63;98239.06;4957023;28;20023;-90
2022/02/14 00:39:54;;;;;;;12.35;2.33;;;;;;;11.15;72.52;98247.56;4957445;28;20058;-90
2022/02/14 00:42:20;;;;;;;4.93;1.52;;;;;;;11.16;71.97;98254.47;4956564;29;20461;-90
2022/02/14 00:44:45;;;;;;;7.43;1.13;;;;;;;11.30;72.30;98252.03;4957723;28;20400;-90
2022/02/14 00:47:11;;;;;;;7.82;2.35;;;;;;;11.27;71.72;98254.97;4958462;28;20027;-91
2022/02/14 00:49:37;;;;;;;7.25;1.38;;;;;;;11.25;72.12;98267.44;4957862;28;20027;-90
2022/02/14 00:52:03;;;;;;;6.20;1.42;;;;;;;11.29;71.46;98270.59;4957515;28;20054;-90
2022/02/14 00:54:29;;;;;;;6.28;1.10;;;;;;;11.18;71.46;98269.09;4957554;28;20023;-90
2022/02/14 00:56:54;;;;;;;3.63;1.05;;;;;;;11.16;71.25;98270.22;4957103;28;20038;-90
2022/02/14 00:59:21;;;;;;;7.47;1.30;;;;;;;11.18;71.41;98268.28;4957179;28;20027;-90
2022/02/14 01:01:47;;;;;;;6.45;1.55;;;;;;;11.15;71.39;98265.97;4956911;28;20027;-90
2022/02/14 01:04:14;;;;;;;10.00;1.50;;;;;;;11.17;71.14;98264.81;4957077;28;20150;-90
2022/02/14 01:06:40;;;;;;;6.85;1.80;;;;;;;11.01;70.73;98246.38;4957259;28;20027;-90
2022/02/14 01:09:05;;;;;;;4.80;1.25;;;;;;;10.93;71.21;98262.13;4957011;28;20350;-90
2022/02/14 01:11:31;;;;;;;3.90;1.05;;;;;;;10.99;70.92;98266.75;4956824;28;20102;-90
2022/02/14 01:13:56;;;;;;;3.95;1.40;;;;;;;10.99;71.08;98279.88;4956486;28;20106;-89
2022/02/14 01:16:22;;;;;;;4.40;1.52;;;;;;;10.79;71.25;98269.63;4956524;28;20023;-90
2022/02/14 01:18:48;;;;;;;7.20;1.70;;;;;;;10.83;71.20;98265.69;4956765;28;20062;-89
2022/02/14 01:21:14;;;;;;;5.55;1.63;;;;;;;10.80;71.40;98291.44;4956460;28;20537;-89
2022/02/14 01:23:40;;;;;;;3.88;1.42;;;;;;;10.81;70.92;98285.22;4956704;28;20118;-89
2022/02/14 01:26:05;;;;;;;5.65;1.90;;;;;;;10.84;71.22;98287.50;4956841;28;20437;-89
2022/02/14 01:28:31;;;;;;;2.80;1.23;;;;;;;10.69;72.10;98282.03;4956401;28;20062;-90
2022/02/14 01:30:56;;;;;;;3.47;1.63;;;;;;;10.69;71.93;98290.72;4956161;28;20023;-90
2022/02/14 01:33:21;;;;;;;9.48;1.95;;;;;;;10.48;72.09;98287.66;4956750;28;20015;-89
2022/02/14 01:35:47;;;;;;;4.95;1.50;;;;;;;10.61;72.37;98303.81;4956807;28;20474;-90
2022/02/14 01:38:13;;;;;;;5.55;1.73;;;;;;;10.82;71.64;98299.97;4956532;28;20482;-90
2022/02/14 01:40:38;;;;;;;4.28;1.90;;;;;;;10.66;71.80;98306.81;4956307;28;20031;-90
2022/02/14 01:43:04;;;;;;;8.68;2.08;;;;;;;10.64;71.56;98310.56;4955132;28;20038;-90
2022/02/14 01:45:29;;;;;;;7.82;2.20;;;;;;;10.68;71.30;98319.75;4956411;28;20106;-89
2022/02/14 01:47:55;;;;;;;4.78;1.40;;;;;;;10.74;71.46;98320.94;4956479;28;20039;-90
2022/02/14 01:50:21;;;;;;;5.43;2.03;;;;;;;10.65;71.13;98323.53;4954707;28;20030;-91
2022/02/14 01:52:46;;;;;;;12.13;4.38;;;;;;;10.67;70.91;98332.06;4955396;28;20031;-90
2022/02/14 01:55:14;;;;;;;7.50;1.85;;;;;;;10.78;71.32;98331.00;4956646;28;20039;-90
2022/02/14 01:57:39;;;;;;;7.38;1.75;;;;;;;10.79;70.78;98334.44;4956287;28;20441;-90
2022/02/14 02:00:25;;;;;;;3.60;1.70;;;;;;;10.69;70.55;98337.16;4955980;28;20142;-90
2022/02/14 02:02:51;;;;;;;3.60;1.48;;;;;;;10.85;70.57;98345.13;4955991;28;20097;-90
2022/02/14 02:05:16;;;;;;;8.13;1.77;;;;;;;10.88;71.04;98350.06;4955805;28;20517;-90
2022/02/14 02:07:43;;;;;;;3.33;1.63;;;;;;;10.84;70.59;98346.09;4955679;28;20023;-90
2022/02/14 02:10:09;;;;;;;6.00;1.40;;;;;;;10.69;70.90;98335.34;4955671;28;20027;-90
2022/02/14 02:12:35;;;;;;;3.10;1.73;;;;;;;10.84;70.98;98346.09;4954827;29;20141;-90
2022/02/14 02:15:05;;;;;;;4.07;1.30;;;;;;;10.80;70.40;98336.91;4955925;28;20023;-90
2022/02/14 02:17:33;;;;;;;2.58;0.98;;;;;;;10.80;70.16;98346.56;4954163;28;20118;-90
2022/02/14 02:20:00;;;;;;;6.97;1.13;;;;;;;10.56;69.55;98342.81;4955395;28;20474;-90
2022/02/14 02:22:25;;;;;;;5.00;0.95;;;;;;;10.58;69.44;98343.47;4955018;28;20042;-89
2022/02/14 02:24:55;;;;;;;1.05;0.60;;;;;;;10.52;69.50;98359.84;4957220;28;20110;-89
2022/02/14 02:27:25;;;;;;;4.00;0.93;;;;;;;10.33;69.43;98347.75;4955717;28;20027;-90
2022/02/14 02:30:01;;;;;;;3.72;0.75;;;;;;;10.40;69.59;98361.91;4954162;28;20397;-90
2022/02/14 02:32:30;;;;;;;5.43;1.30;;;;;;;10.40;69.08;98363.72;4956615;28;20102;-89
2022/02/14 02:34:56;;;;;;;6.50;1.05;;;;;;;10.37;69.56;98370.09;4957422;28;20035;-90
2022/02/14 02:37:21;;;;;;;2.88;0.60;;;;;;;10.39;69.67;98362.06;4956158;28;20030;-90
2022/02/14 02:39:47;;;;;;;5.45;1.13;;;;;;;10.38;69.56;98376.97;4955599;28;20035;-90
2022/02/14 02:42:15;;;;;;;4.60;0.90;;;;;;;10.39;69.75;98377.81;4954535;28;20031;-90
2022/02/14 02:44:42;;;;;;;4.68;1.10;;;;;;;10.43;69.46;98371.28;4954411;28;20027;-90
2022/02/14 02:47:10;;;;;;;5.47;1.10;;;;;;;10.24;69.10;98382.72;4954373;29;20497;-90
2022/02/14 02:49:36;;;;;;;4.43;1.30;;;;;;;10.24;69.39;98380.94;4954538;28;20035;-90
2022/02/14 02:52:04;;;;;;;4.70;1.27;;;;;;;10.17;70.00;98390.41;4954364;28;20027;-90
2022/02/14 02:54:30;;;;;;;4.50;1.02;;;;;;;10.20;69.71;98387.47;4955865;28;20031;-90
2022/02/14 02:56:56;;;;;;;1.55;0.80;;;;;;;10.09;69.48;98398.16;4954551;29;20035;-90
2022/02/14 02:59:24;;;;;;;3.28;1.08;;;;;;;10.18;69.94;98384.16;4955774;28;20393;-90
2022/02/14 03:01:49;;;;;;;4.72;0.88;;;;;;;10.31;69.90;98397.75;4955505;28;20035;-91
2022/02/14 03:04:16;;;;;;;4.45;1.17;;;;;;;10.24;69.74;98391.41;4955570;28;20034;-90
2022/02/14 03:06:42;;;;;;;4.53;0.98;;;;;;;10.21;69.70;98401.38;4955268;28;20022;-91
2022/02/14 03:09:09;;;;;;;3.85;0.88;;;;;;;10.37;69.16;98401.56;4955006;28;20015;-90
2022/02/14 03:11:36;;;;;;;3.22;1.00;;;;;;;10.35;69.16;98397.44;4954140;28;20020;-91
2022/02/14 03:14:02;;;;;;;3.42;1.00;;;;;;;10.19;69.81;98380.56;4955048;28;20047;-90
2022/02/14 03:16:27;;;;;;;4.25;1.02;;;;;;;10.31;69.47;98382.00;4955138;28;20418;-90
2022/02/14 03:18:53;;;;;;;3.55;0.70;;;;;;;10.26;68.79;98384.22;4955336;28;20020;-91
2022/02/14 03:21:21;;;;;;;1.65;0.50;;;;;;;10.21;69.20;98388.28;4953740;28;20104;-90
2022/02/14 03:23:53;;;;;;;4.20;1.23;;;;;;;10.15;69.37;98399.38;4955222;28;20027;-90
2022/02/14 03:26:21;;;;;;;5.43;0.82;;;;;;;10.16;69.37;98399.22;4954001;28;20413;-91
2022/02/14 03:28:49;;;;;;;4.07;0.80;;;;;;;10.16;69.21;98407.09;4959209;28;20027;-90
2022/02/14 03:31:15;;;;;;;6.65;1.42;;;;;;;10.17;69.74;98415.78;4972581;28;20034;-90
2022/02/14 03:33:41;;;;;;;6.32;0.90;;;;;;;10.09;69.62;98416.53;4974408;28;20038;-91
2022/02/14 03:36:07;;;;;;;2.63;0.65;;;;;;;10.13;68.89;98420.53;4974840;28;20051;-90
2022/02/14 03:38:34;;;;;;;8.45;1.02;;;;;;;9.93;69.63;98415.41;4973821;28;20054;-90
2022/02/14 03:40:59;;;;;;;6.35;1.80;;;;;;;10.03;69.84;98419.75;4972488;28;20039;-90
2022/02/14 03:43:25;;;;;;;7.53;0.95;;;;;;;10.15;69.48;98413.31;4972855;28;20037;-90
2022/02/14 03:45:51;;;;;;;6.28;0.93;;;;;;;10.08;69.65;98422.75;4973994;28;20073;-90
2022/02/14 03:48:17;;;;;;;4.80;1.40;;;;;;;10.07;69.96;98423.72;4974165;28;20037;-90
2022/02/14 03:50:42;;;;;;;5.10;0.90;;;;;;;10.15;69.93;98429.06;4974208;28;20035;-91
2022/02/14 03:53:08;;;;;;;7.32;1.05;;;;;;;10.14;69.72;98422.16;4974085;28;20119;-90
2022/02/14 03:55:33;;;;;;;7.75;1.23;;;;;;;10.02;70.27;98431.22;4973859;28;20105;-90
2022/02/14 03:57:59;;;;;;;11.23;1.25;;;;;;;10.02;70.65;98441.72;4973795;28;20077;-90
2022/02/14 04:00:25;;;;;;;7.05;1.23;;;;;;;10.18;70.20;98426.13;4973725;28;20106;-90
2022/02/14 04:02:51;;;;;;;10.98;1.35;;;;;;;10.16;70.54;98435.13;4972609;28;20035;-90
2022/02/14 04:05:19;;;;;;;8.02;1.20;;;;;;;10.30;70.47;98445.94;4974299;28;20030;-90
2022/02/14 04:07:45;;;;;;;8.52;1.02;;;;;;;10.22;70.89;98437.97;4973890;28;20492;-90
2022/02/14 04:10:13;;;;;;;11.32;1.25;;;;;;;10.34;70.80;98448.25;4972664;28;20115;-90
2022/02/14 04:12:38;;;;;;;6.28;1.17;;;;;;;10.26;70.93;98452.41;4975636;28;20027;-90
2022/02/14 04:15:06;;;;;;;11.25;1.40;;;;;;;10.38;70.71;98457.47;4977365;28;20500;-90
2022/02/14 04:17:31;;;;;;;6.82;1.77;;;;;;;10.26;70.90;98462.09;4977186;28;20110;-90
2022/02/14 04:19:57;;;;;;;11.55;1.80;;;;;;;10.27;70.63;98461.94;4977274;28;20054;-90
2022/02/14 04:22:22;;;;;;;5.80;1.30;;;;;;;10.42;70.35;98466.69;4976971;28;20058;-90
2022/02/14 04:24:48;;;;;;;9.30;1.00;;;;;;;10.37;69.80;98461.91;4977381;28;20042;-89
2022/02/14 04:27:14;;;;;;;9.35;1.05;;;;;;;10.32;70.48;98464.97;4977047;28;20024;-90
2022/02/14 04:29:39;;;;;;;6.70;1.20;;;;;;;10.25;70.04;98463.91;4975892;28;20457;-90
2022/02/14 04:32:06;;;;;;;7.05;1.13;;;;;;;9.93;70.21;98462.59;4976861;28;20022;-90
2022/02/14 04:34:31;;;;;;;7.60;1.13;;;;;;;10.11;69.98;98472.25;4977421;28;20113;-90
2022/02/14 04:36:57;;;;;;;3.97;1.00;;;;;;;10.00;70.49;98468.06;4977068;28;20545;-90
2022/02/14 04:39:23;;;;;;;4.80;1.10;;;;;;;10.07;69.72;98470.91;4976647;28;20014;-90
2022/02/14 04:41:48;;;;;;;4.80;1.38;;;;;;;9.78;70.71;98478.97;4976840;28;20370;-90
2022/02/14 04:44:14;;;;;;;7.55;1.55;;;;;;;9.92;69.83;98470.63;4976807;28;20034;-90
2022/02/14 04:46:40;;;;;;;2.78;0.82;;;;;;;9.96;69.64;98481.63;4976716;28;20033;-89
2022/02/14 04:49:07;;;;;;;7.93;1.35;;;;;;;9.73;70.27;98476.78;4976062;28;20023;-89
2022/02/14 04:51:33;;;;;;;13.57;1.38;;;;;;;9.77;70.23;98499.09;4976060;28;20025;-89
2022/02/14 04:54:01;;;;;;;10.88;1.25;;;;;;;9.81;70.40;98510.13;4976018;28;20054;-89
2022/02/14 04:56:27;;;;;;;6.35;0.98;;;;;;;9.73;69.54;98497.75;4976252;28;20042;-89
2022/02/14 04:58:53;;;;;;;4.55;1.20;;;;;;;9.79;69.92;98507.63;4976168;28;20073;-89
2022/02/14 05:01:18;;;;;;;5.53;1.40;;;;;;;9.79;69.67;98519.94;4975981;28;20491;-89
2022/02/14 05:03:43;;;;;;;8.63;1.00;;;;;;;9.68;69.96;98515.72;4976142;28;20023;-89
2022/02/14 05:06:09;;;;;;;5.95;2.05;;;;;;;9.61;69.77;98523.31;4976145;28;20496;-89
2022/02/14 05:08:34;;;;;;;4.57;1.17;;;;;;;9.61;70.71;98525.13;4976096;28;20037;-89
2022/02/14 05:11:02;;;;;;;4.78;1.02;;;;;;;9.59;69.80;98525.25;4974411;28;20027;-89
2022/02/14 05:13:27;;;;;;;5.85;1.08;;;;;;;9.54;70.28;98524.88;4975592;28;20031;-90
2022/02/14 05:15:53;;;;;;;7.78;1.27;;;;;;;9.51;69.87;98520.72;4975383;28;20494;-89
2022/02/14 05:18:18;;;;;;;5.95;1.35;;;;;;;9.56;69.71;98527.31;4975420;28;20034;-89
2022/02/14 05:20:43;;;;;;;4.40;1.50;;;;;;;9.57;69.10;98536.84;4975447;28;20034;-90
2022/02/14 05:23:09;;;;;;;6.03;1.15;;;;;;;9.47;69.89;98532.47;4975314;28;20023;-89
2022/02/14 05:25:35;;;;;;;6.07;1.20;;;;;;;9.40;69.56;98539.25;4975495;28;20433;-89
2022/02/14 05:28:09;;;;;;;2.33;1.05;;;;;;;9.31;70.17;98540.09;4975652;28;20102;-89
2022/02/14 05:30:35;;;;;;;7.57;1.15;;;;;;;9.34;70.68;98550.31;4975625;28;20050;-89
2022/02/14 05:33:01;;;;;;;4.63;1.02;;;;;;;9.37;69.96;98543.94;4975431;28;20026;-89
2022/02/14 05:35:27;;;;;;;11.90;1.40;;;;;;;9.31;70.23;98550.56;4975347;28;20085;-89
2022/02/14 05:37:52;;;;;;;6.63;0.77;;;;;;;9.37;70.17;98543.94;4974967;28;20058;-88
2022/02/14 05:40:19;;;;;;;6.10;1.00;;;;;;;9.36;70.37;98558.00;4973266;28;20039;-89
2022/02/14 05:42:44;;;;;;;7.80;1.63;;;;;;;9.30;70.08;98564.63;4964465;28;20023;-88
2022/02/14 05:45:10;;;;;;;7.65;1.17;;;;;;;9.20;70.05;98561.22;4955587;28;20070;-90
2022/02/14 05:47:35;;;;;;;9.02;1.55;;;;;;;9.24;70.74;98573.91;4972296;28;20061;-89
2022/02/14 05:50:01;;;;;;;3.55;1.10;;;;;;;9.29;70.83;98569.03;4962248;28;20031;-89
2022/02/14 05:52:26;;;;;;;9.43;1.20;;;;;;;9.31;71.04;98567.13;4974642;28;20030;-88
2022/02/14 05:54:52;;;;;;;8.50;1.10;;;;;;;9.35;71.07;98583.38;4968393;28;20030;-89
2022/02/14 05:57:18;;;;;;;7.20;0.88;;;;;;;9.27;70.85;98575.41;4970199;28;20126;-89
2022/02/14 05:59:43;;;;;;;9.40;1.55;;;;;;;9.36;70.89;98582.44;4974209;28;20031;-88
2022/02/14 06:02:09;;;;;;;5.13;1.10;;;;;;;9.33;71.10;98587.94;4974416;28;20037;-89
2022/02/14 06:04:34;;;;;;;6.93;1.70;;;;;;;9.24;70.65;98594.00;4975355;28;20022;-89
2022/02/14 06:07:00;;;;;;;8.85;1.35;;;;;;;9.25;71.13;98599.09;4974553;28;20019;-89
2022/02/14 06:09:26;;;;;;;9.57;1.20;;;;;;;9.19;70.95;98596.22;4966981;28;20039;-89
2022/02/14 06:11:53;;;;;;;6.40;1.77;;;;;;;9.27;71.88;98606.81;4958443;28;20105;-89
2022/02/14 06:14:19;;;;;;;7.72;1.13;;;;;;;9.26;71.49;98607.78;4965904;28;20073;-89
2022/02/14 06:16:44;;;;;;;6.72;1.17;;;;;;;9.42;71.47;98600.19;4974625;28;20034;-89
2022/02/14 06:19:10;;;;;;;8.75;1.20;;;;;;;9.50;71.44;98608.16;4970934;28;20516;-89
2022/02/14 06:21:35;;;;;;;6.00;1.17;;;;;;;9.47;71.04;98613.69;4974407;28;20038;-89
2022/02/14 06:24:01;;;;;;;9.38;1.33;;;;;;;9.52;71.24;98611.47;4974107;28;20058;-89
2022/02/14 06:26:27;;;;;;;9.80;0.90;;;;;;;9.66;70.56;98606.75;4973600;28;20026;-89
2022/02/14 06:28:52;;;;;;;8.32;1.10;;;;;;;9.64;70.85;98616.56;4973597;28;20027;-90
2022/02/14 06:31:18;;;;;;;6.43;1.48;;;;;;;9.69;70.19;98606.44;4955922;28;20055;-89
2022/02/14 06:33:43;;;;;;;6.63;1.10;;;;;;;9.61;69.94;98616.81;4954305;28;20504;-89
2022/02/14 06:36:09;;;;;;;6.60;1.00;;;;;;;9.75;70.15;98626.84;4954955;28;20050;-89
2022/02/14 06:38:34;;;;;;;6.30;1.42;;;;;;;9.72;69.88;98633.22;4954725;28;20034;-90
2022/02/14 06:41:00;;;;;;;3.58;0.80;;;;;;;9.73;70.34;98629.63;4953626;28;20378;-89
2022/02/14 06:43:26;;;;;;;6.20;0.93;;;;;;;9.80;69.83;98634.31;4954786;28;20109;-89
2022/02/14 06:45:52;;;;;;;9.43;1.23;;;;;;;9.79;69.56;98643.94;4955884;28;20474;-90
2022/02/14 06:48:17;;;;;;;7.13;1.30;;;;;;;9.69;69.17;98645.75;4955200;28;20374;-90
2022/02/14 06:50:43;;;;;;;12.02;1.40;;;;;;;9.66;69.82;98654.75;4954045;29;20470;-90
2022/02/14 06:53:08;;;;;;;7.70;1.55;;;;;;;9.61;69.79;98661.38;4953614;29;20032;-89
2022/02/14 06:55:34;;;;;;;4.50;1.05;;;;;;;9.68;70.19;98662.47;4954899;28;20481;-89
2022/02/14 06:57:59;;;;;;;5.88;0.98;;;;;;;9.76;69.98;98672.25;4954744;28;20047;-90
2022/02/14 07:00:25;;;;;;;9.23;0.88;;;;;;;9.64;70.14;98676.81;4966865;28;20027;-89
2022/02/14 07:02:50;;;;;;;6.07;1.15;;;;;;;9.72;70.02;98675.13;4972462;28;20038;-90
2022/02/14 07:05:17;;;;;;;2.85;0.90;;;;;;;9.75;69.79;98679.25;4973724;28;20070;-88
2022/02/14 07:07:43;;;;;;;3.58;0.90;;;;;;;9.77;69.68;98677.31;4970761;28;20025;-88
2022/02/14 07:10:10;;;;;;;2.95;1.30;;;;;;;9.71;69.77;98670.84;4974678;28;20019;-88
2022/02/14 07:12:35;;;;;;;5.28;1.02;;;;;;;9.82;69.89;98690.84;4972356;28;20085;-88
2022/02/14 07:15:00;;;;;;;6.22;0.90;;;;;;;9.85;69.50;98690.56;4973018;28;20037;-93
2022/02/14 07:17:26;;;;;;;4.93;0.98;;;;;;;9.81;69.70;98689.19;4973663;28;20102;-91
2022/02/14 07:19:51;;;;;;;10.27;1.08;;;;;;;9.86;69.79;98697.47;4973105;28;20050;-91
2022/02/14 07:22:17;;;;;;;4.97;1.00;;;;;;;9.89;69.82;98701.56;4973462;28;20027;-92
2022/02/14 07:24:42;;;;;;;10.75;1.23;;;;;;;10.01;69.26;98697.00;4966040;28;20420;-95
2022/02/14 07:27:08;;;;;;;6.93;1.17;;;;;;;10.07;69.39;98701.66;4974267;28;20027;-94
2022/02/14 07:29:33;;;;;;;8.60;1.02;;;;;;;9.92;69.81;98709.19;4975089;28;20140;-93
2022/02/14 07:32:00;;;;;;;6.93;0.90;;;;;;;9.93;69.69;98713.44;4973466;28;20019;-93
2022/02/14 07:34:25;;;;;;;5.07;0.90;;;;;;;10.01;69.32;98717.97;4974931;28;20022;-92
2022/02/14 07:36:51;;;;;;;4.75;0.90;;;;;;;9.90;69.67;98718.97;4959818;28;20027;-93
2022/02/14 07:39:17;;;;;;;4.35;0.70;;;;;;;10.15;69.16;98714.91;4965277;28;20023;-94
2022/02/14 07:41:43;;;;;;;4.68;1.10;;;;;;;10.19;69.67;98718.06;4961399;28;20042;-93
2022/02/14 07:44:08;;;;;;;4.97;0.82;;;;;;;10.17;69.07;98717.38;4965646;28;20027;-92
2022/02/14 07:46:34;;;;;;;3.47;0.80;;;;;;;10.10;68.82;98711.88;4995561;28;20089;-94
2022/02/14 07:48:59;;;;;;;5.25;1.30;;;;;;;10.09;69.46;98725.94;4982003;28;20414;-92
2022/02/14 07:51:25;;;;;;;6.15;1.10;;;;;;;10.19;68.73;98734.66;4985675;28;20027;-92
2022/02/14 07:53:51;;;;;;;6.72;0.95;;;;;;;10.18;69.21;98727.72;4997259;28;20041;-91
2022/02/14 07:56:16;;;;;;;7.65;1.10;;;;;;;10.27;69.21;98737.38;4995772;28;20062;-89
2022/02/14 07:58:49;;;;;;;5.60;1.15;;;;;;;10.25;68.90;98734.06;4995901;28;20023;-89
2022/02/14 08:01:15;;;;;;;8.70;1.30;;;;;;;10.26;68.98;98740.13;4990728;28;20089;-89
2022/02/14 08:03:41;;;;;;;7.93;1.30;;;;;;;10.22;68.99;98741.38;4996614;28;20039;-89
2022/02/14 08:06:06;;;;;;;6.47;1.40;;;;;;;10.01;69.92;98746.81;4985523;28;20031;-89
2022/02/14 08:08:31;;;;;;;8.10;1.20;;;;;;;10.09;69.55;98741.69;4983402;28;20026;-87
2022/02/14 08:10:57;;;;;;;7.03;1.40;;;;;;;10.23;69.34;98762.25;4997184;28;20031;-88
2022/02/14 08:13:22;;;;;;;4.10;1.27;;;;;;;10.32;68.82;98761.41;4991932;28;20034;-88
2022/02/14 08:15:48;;;;;;;2.95;1.40;;;;;;;10.45;68.71;98771.59;4988290;28;20046;-88
2022/02/14 08:18:14;;;;;;;9.07;1.30;;;;;;;10.57;68.87;98774.03;4994801;28;20023;-90
2022/02/14 08:20:40;;;;;;;5.60;1.08;;;;;;;10.41;68.70;98764.16;4989728;28;20113;-87
2022/02/14 08:23:06;;;;;;;8.07;1.20;;;;;;;10.55;68.72;98763.69;4993276;28;20046;-88
2022/02/14 08:25:31;;;;;;;6.18;0.90;;;;;;;10.45;69.00;98776.84;4984744;28;20720;-88
2022/02/14 08:27:58;;;;;;;7.90;0.93;;;;;;;10.54;68.64;98777.75;4994678;28;20031;-90
2022/02/14 08:30:24;;;;;;;10.65;1.88;;;;;;;10.64;68.44;98778.56;4975609;28;20310;-88
2022/02/14 08:32:50;;;;;;;4.57;1.25;;;;;;;11.00;67.22;98788.31;4962716;28;20349;-88
2022/02/14 08:35:17;;;;;;;6.43;0.98;;;;;;;10.81;68.07;98776.13;4974155;28;20071;-89
2022/02/14 08:37:47;;;;;;;4.97;1.00;;;;;;;10.79;67.28;98772.84;4978674;28;20089;-89
2022/02/14 08:40:14;;;;;;;9.10;1.08;;;;;;;10.79;66.96;98783.34;4961681;28;20058;-90
2022/02/14 08:42:40;;;;;;;3.75;0.82;;;;;;;10.95;67.05;98787.97;4965721;28;20027;-88
2022/02/14 08:45:06;;;;;;;2.15;0.73;;;;;;;11.21;66.51;98788.06;4976781;28;20429;-91
2022/02/14 08:47:32;;;;;;;5.13;1.05;;;;;;;11.29;65.52;98785.53;4972540;28;20027;-88
2022/02/14 08:49:59;;;;;;;4.00;0.80;;;;;;;11.37;65.77;98790.88;4956070;28;20034;-89
2022/02/14 08:52:27;;;;;;;4.03;0.85;;;;;;;11.07;65.78;98802.53;4957902;28;20027;-88
2022/02/14 08:54:53;;;;;;;4.75;0.60;;;;;;;11.35;65.61;98792.81;4957415;28;20074;-89
2022/02/14 08:57:19;;;;;;;6.22;0.80;;;;;;;11.60;65.88;98808.84;4957303;28;20027;-89
2022/02/14 08:59:44;;;;;;;1.60;0.55;;;;;;;11.55;64.82;98805.81;4958067;28;20500;-89
2022/02/14 09:02:09;;;;;;;4.25;0.77;;;;;;;11.83;64.77;98812.66;4957537;28;20114;-88
2022/02/14 09:04:35;;;;;;;5.00;0.65;;;;;;;11.87;64.26;98805.31;4957186;28;20489;-89
2022/02/14 09:07:00;;;;;;;4.43;1.10;;;;;;;12.14;64.06;98807.00;4956875;28;20023;-89
2022/02/14 09:09:26;;;;;;;6.00;0.60;;;;;;;11.75;64.49;98799.47;4956676;28;20106;-89
2022/02/14 09:11:51;;;;;;;5.43;0.60;;;;;;;12.00;63.70;98802.31;4956753;28;20110;-88
2022/02/14 09:14:16;;;;;;;2.35;0.80;;;;;;;12.26;63.65;98810.22;4956828;28;20027;-88
2022/02/14 09:16:42;;;;;;;4.25;0.60;;;;;;;12.60;62.87;98812.91;4956538;28;20389;-89
2022/02/14 09:19:08;;;;;;;1.92;0.63;;;;;;;12.99;62.76;98812.41;4956193;28;20370;-89
2022/02/14 09:21:34;;;;;;;4.35;0.70;;;;;;;14.07;61.48;98823.03;4956208;28;20123;-89
2022/02/14 09:23:59;;;;;;;1.08;0.30;;;;;;;14.70;58.56;98818.03;4956307;28;20085;-89
2022/02/14 09:26:25;;;;;;;1.65;0.50;;;;;;;15.41;56.31;98824.16;4956262;28;20536;-89
2022/02/14 09:28:51;;;;;;;2.78;0.60;;;;;;;16.09;55.77;98829.66;4956614;28;20389;-88
2022/02/14 09:31:16;;;;;;;1.85;0.43;;;;;;;15.73;54.23;98819.69;4956631;28;20024;-89
2022/02/14 09:33:42;;;;;;;1.60;0.40;;;;;;;16.76;51.69;98828.03;4956593;28;20059;-89
2022/02/14 09:36:07;;;;;;;2.20;0.40;;;;;;;15.79;52.24;98840.16;4956238;28;20031;-89
2022/02/14 09:38:33;;;;;;;3.20;0.40;;;;;;;14.89;53.76;98853.81;4955726;28;20470;-89
2022/02/14 09:40:59;;;;;;;2.95;0.43;;;;;;;14.27;55.64;98849.91;4955675;28;20035;-89
2022/02/14 09:43:25;;;;;;;1.77;0.30;;;;;;;13.93;56.89;98846.63;4955794;28;20043;-89
2022/02/14 09:45:51;;;;;;;0.57;0.20;;;;;;;13.83;58.44;98863.44;4955909;28;20024;-89
2022/02/14 09:48:20;;;;;;;2.40;0.43;;;;;;;13.45;58.03;98867.47;4956478;28;20070;-90
2022/02/14 09:50:46;;;;;;;1.00;0.35;;;;;;;13.12;58.76;98874.41;4956275;28;20054;-90
2022/02/14 09:53:15;;;;;;;1.65;0.30;;;;;;;13.16;59.91;98867.84;4955094;29;20023;-91
2022/02/14 09:55:42;;;;;;;1.08;0.30;;;;;;;13.52;59.70;98865.00;4956561;28;20395;-91
2022/02/14 09:58:08;;;;;;;2.83;0.60;;;;;;;13.54;59.62;98879.69;4954898;28;20023;-90
2022/02/14 10:00:36;;;;;;;3.67;0.68;;;;;;;13.06;59.83;98887.22;4956313;28;20031;-91
2022/02/14 10:03:07;;;;;;;5.15;1.15;;;;;;;12.79;60.97;98892.66;4956298;28;20034;-90
2022/02/14 10:05:41;;;;;;;6.90;3.17;;;;;;;12.92;60.95;98887.81;4954838;29;20028;-90
2022/02/14 10:08:06;;;;;;;31.52;12.85;;;;;;;13.05;60.70;98901.38;4954932;28;20036;-91
2022/02/14 10:10:32;;;;;;;5.43;1.40;;;;;;;12.87;61.02;98893.56;4955379;28;20030;-91
2022/02/14 10:13:00;;;;;;;8.45;1.10;;;;;;;12.73;61.54;98893.28;4956560;28;20329;-91
2022/02/14 10:15:27;;;;;;;6.55;1.20;;;;;;;12.64;61.61;98901.13;4956308;28;20138;-90
2022/02/14 10:17:59;;;;;;;8.13;1.90;;;;;;;12.61;62.54;98898.81;4955830;28;20481;-90
2022/02/14 10:20:25;;;;;;;;;;;;;;;12.69;62.75;98909.38;4956543;28;20058;-91
2022/02/14 10:23:02;;;;;;;4.05;0.73;;;;;;;12.88;62.82;98904.91;4955885;28;19914;-91
2022/02/14 10:25:37;;;;;;;7.28;1.20;;;;;;;12.57;62.96;98899.28;4956272;28;20027;-91
2022/02/14 10:28:20;;;;;;;3.45;0.90;;;;;;;12.49;61.76;98915.84;4955873;28;20031;-91
2022/02/14 10:31:06;;;;;;;3.40;0.47;;;;;;;12.33;62.59;98910.47;4955661;28;20175;-90
2022/02/14 10:33:51;;;;;;;3.10;0.98;;;;;;;12.28;63.17;98914.38;4954988;28;20063;-90
2022/02/14 10:36:27;;;;;;;6.43;0.75;;;;;;;12.29;63.41;98923.09;4961644;28;20027;-90
2022/02/14 10:38:53;;;;;;;6.18;0.93;;;;;;;12.20;63.74;98926.59;4964098;28;20050;-90
2022/02/14 10:41:18;;;;;;;6.40;1.05;;;;;;;12.25;64.33;98925.19;4972626;28;20082;-90
2022/02/14 10:43:44;;;;;;;11.20;1.67;;;;;;;12.25;64.99;98935.72;4983232;28;20022;-89
2022/02/14 10:46:22;;;;;;;4.90;1.00;;;;;;;12.14;64.50;98932.47;4982309;28;20033;-89
2022/02/14 10:48:47;;;;;;;2.80;0.80;;;;;;;12.18;65.28;98929.38;4972617;28;20513;-88
2022/02/14 10:51:17;;;;;;;6.45;1.00;;;;;;;12.29;64.95;98931.78;4966919;28;20054;-88
2022/02/14 10:53:44;;;;;;;5.72;0.93;;;;;;;12.60;65.34;98933.19;4957529;28;20031;-90
2022/02/14 10:56:10;;;;;;;9.82;1.85;;;;;;;12.60;63.33;98946.34;4961653;28;20027;-88
2022/02/14 10:58:36;;;;;;;7.15;1.30;;;;;;;12.85;63.95;98948.19;4975871;28;20289;-89
2022/02/14 11:01:01;;;;;;;9.85;1.02;;;;;;;12.77;62.99;98958.66;4975372;28;20269;-90
2022/02/14 11:03:27;;;;;;;8.85;1.40;;;;;;;12.70;62.40;98955.00;4975834;28;20435;-90
2022/02/14 11:05:53;;;;;;;7.55;1.13;;;;;;;12.51;62.70;98971.78;4975710;28;20377;-89
2022/02/14 11:08:21;;;;;;;2.97;0.73;;;;;;;12.50;62.49;98962.25;4975969;28;20046;-90
2022/02/14 11:10:50;;;;;;;5.38;1.13;;;;;;;12.89;62.74;98975.88;4964242;28;20030;-90
2022/02/14 11:13:17;;;;;;;5.35;1.25;;;;;;;13.01;62.15;98967.72;4975931;28;20102;-90
2022/02/14 11:15:43;;;;;;;5.82;0.88;;;;;;;13.00;61.45;98976.63;4966090;28;20114;-90
2022/02/14 11:18:20;;;;;;;5.68;1.10;;;;;;;12.98;61.36;98994.38;4963715;28;20532;-89
2022/02/14 11:20:48;;;;;;;7.72;1.85;;;;;;;12.82;62.01;98998.53;4973903;28;20470;-90
2022/02/14 11:23:16;;;;;;;3.08;1.10;;;;;;;12.68;61.58;98994.66;4978772;28;20046;-89
2022/02/14 11:25:51;;;;;;;5.32;1.20;;;;;;;12.82;61.82;98993.28;4979210;28;20018;-90
2022/02/14 11:28:25;;;;;;;5.97;1.27;;;;;;;12.91;61.57;98994.16;4978647;28;20034;-91
2022/02/14 11:31:11;;;;;;;5.43;2.08;;;;;;;12.72;61.64;98999.59;4975590;28;20042;-91